Time;durP1;ratioP1;P1;durP2;ratioP2;P2;SDS_P1;SDS_P2;PMS_P1;PMS_P2;Temp;Humidity;BMP_temperature;BMP_pressure;BME280_temperature;BME280_humidity;BME280_pressure;Samples;Min_cycle;Max_cycle;Signal;HPM_P1;HPM_P2
2022/03/11 00:01:44;;;;;;;;;;;8.80;66.50;;;;;;5076037;28;19908;-63
2022/03/11 00:04:09;;;;;;;;;;;8.70;66.30;;;;;;5093189;28;19927;-61
2022/03/11 00:06:35;;;;;;;;;;;8.80;66.40;;;;;;5093777;28;19912;-62
2022/03/11 00:09:03;;;;;;;;;;;8.90;66.30;;;;;;5093866;28;19908;-62
2022/03/11 00:11:29;;;;;;;;;;;8.80;66.50;;;;;;5093148;28;19908;-62
2022/03/11 00:13:54;;;;;;;;;;;8.80;67.00;;;;;;5093480;28;20243;-62
2022/03/11 00:16:20;;;;;;;;;;;8.60;67.30;;;;;;5093157;28;20339;-62
2022/03/11 00:18:46;;;;;;;;;;;8.60;67.30;;;;;;5093262;28;19912;-63
2022/03/11 00:21:12;;;;;;;;;;;8.70;67.50;;;;;;5092915;28;20278;-60
2022/03/11 00:23:43;;;;;;;;;;;8.70;67.90;;;;;;5093033;28;20384;-64
2022/03/11 00:26:09;;;;;;;;;;;8.60;67.50;;;;;;5092396;28;20019;-62
2022/03/11 00:28:35;;;;;;;;;;;8.70;67.80;;;;;;5075304;28;19943;-62
2022/03/11 00:31:01;;;;;;;;;;;8.60;67.80;;;;;;5093232;28;19990;-63
2022/03/11 00:33:26;;;;;;;;;;;8.70;67.70;;;;;;5074615;28;19912;-61
2022/03/11 00:35:52;;;;;;;;;;;8.70;67.60;;;;;;5092975;28;20385;-62
2022/03/11 00:38:17;;;;;;;;;;;8.70;67.80;;;;;;5093150;28;19955;-61
2022/03/11 00:40:43;;;;;;;;;;;8.70;67.70;;;;;;5075020;28;19953;-63
2022/03/11 00:43:08;;;;;;;;;;;8.60;67.90;;;;;;5092651;28;20362;-78
2022/03/11 00:45:34;;;;;;;;;;;8.70;67.50;;;;;;5093009;28;19912;-66
2022/03/11 00:48:00;;;;;;;;;;;8.60;67.50;;;;;;5093335;28;19908;-61
2022/03/11 00:50:25;;;;;;;;;;;8.60;67.60;;;;;;5092542;28;19912;-61
2022/03/11 00:52:51;;;;;;;;;;;8.60;67.40;;;;;;5092895;28;19912;-60
2022/03/11 00:55:17;;;;;;;;;;;8.60;67.40;;;;;;5093720;28;20346;-62
2022/03/11 00:57:42;;;;;;;;;;;8.50;67.70;;;;;;5093413;28;19914;-62
2022/03/11 01:00:08;;;;;;;;;;;8.50;67.60;;;;;;5075032;28;20391;-61
2022/03/11 01:02:38;;;;;;;;;;;8.50;67.70;;;;;;5074318;28;19943;-62
2022/03/11 01:05:05;;;;;;;;;;;8.30;68.00;;;;;;5092806;28;19915;-60
2022/03/11 01:07:30;;;;;;;;;;;8.10;68.70;;;;;;5092377;28;20395;-61
2022/03/11 01:09:56;;;;;;;;;;;8.10;69.00;;;;;;5074836;28;20010;-61
2022/03/11 01:12:21;;;;;;;;;;;8.20;69.00;;;;;;5075124;28;19957;-61
2022/03/11 01:14:47;;;;;;;;;;;8.00;69.20;;;;;;5097099;28;19916;-60
2022/03/11 01:17:12;;;;;;;;;;;8.10;69.10;;;;;;5096328;28;20345;-60
2022/03/11 01:19:38;;;;;;;;;;;8.20;68.90;;;;;;5078495;28;19909;-61
2022/03/11 01:22:04;;;;;;;;;;;8.30;68.90;;;;;;5078220;28;19908;-65
2022/03/11 01:24:29;;;;;;;;;;;8.20;68.90;;;;;;5095430;28;19924;-61
2022/03/11 01:26:55;;;;;;;;;;;8.00;69.40;;;;;;5096879;28;19918;-63
2022/03/11 01:29:21;;;;;;;;;;;8.10;69.50;;;;;;5095911;28;19908;-60
2022/03/11 01:31:46;;;;;;;;;;;8.00;70.00;;;;;;5096317;28;19914;-60
2022/03/11 01:34:12;;;;;;;;;;;7.80;70.20;;;;;;5095884;28;19919;-73
2022/03/11 01:36:38;;;;;;;;;;;7.60;70.90;;;;;;5096363;28;20318;-62
2022/03/11 01:39:04;;;;;;;;;;;7.40;71.50;;;;;;5096199;28;19954;-60
2022/03/11 01:41:29;;;;;;;;;;;7.30;72.30;;;;;;5095688;28;19909;-60
2022/03/11 01:43:59;;;;;;;;;;;7.50;72.00;;;;;;5095905;28;19912;-61
2022/03/11 01:46:25;;;;;;;;;;;7.50;72.00;;;;;;5077438;28;19911;-60
2022/03/11 01:48:51;;;;;;;;;;;7.40;72.40;;;;;;5095973;28;20380;-60
2022/03/11 01:51:16;;;;;;;;;;;7.40;72.30;;;;;;5095625;28;20379;-60
2022/03/11 01:53:42;;;;;;;;;;;7.50;72.30;;;;;;5095572;28;19916;-63
2022/03/11 01:56:08;;;;;;;;;;;7.50;72.40;;;;;;5096271;28;19923;-60
2022/03/11 01:58:34;;;;;;;;;;;7.30;73.00;;;;;;5077343;28;19912;-60
2022/03/11 02:01:00;;;;;;;;;;;7.30;73.30;;;;;;5095897;28;19908;-65
2022/03/11 02:03:25;;;;;;;;;;;7.20;73.70;;;;;;5077340;28;19912;-60
2022/03/11 02:05:50;;;;;;;;;;;7.10;74.30;;;;;;5095961;28;19908;-64
2022/03/11 02:08:17;;;;;;;;;;;7.10;74.60;;;;;;5077428;28;19908;-62
2022/03/11 02:10:43;;;;;;;;;;;7.10;74.70;;;;;;5061323;28;19912;-62
2022/03/11 02:13:08;;;;;;;;;;;7.10;74.60;;;;;;5096181;28;19919;-61
2022/03/11 02:15:34;;;;;;;;;;;7.10;74.70;;;;;;5095240;28;20381;-61
2022/03/11 02:17:59;;;;;;;;;;;6.90;75.30;;;;;;5096169;28;19953;-60
2022/03/11 02:20:25;;;;;;;;;;;6.90;75.50;;;;;;5077745;28;20418;-60
2022/03/11 02:22:52;;;;;;;;;;;6.90;75.60;;;;;;5095886;28;19936;-64
2022/03/11 02:25:17;;;;;;;;;;;7.00;75.40;;;;;;5095599;28;19947;-61
2022/03/11 02:27:43;;;;;;;;;;;6.80;76.00;;;;;;5095355;28;20354;-62
2022/03/11 02:30:26;;;;;;;;;;;6.60;76.90;;;;;;5095505;28;19923;-62
2022/03/11 02:32:52;;;;;;;;;;;6.60;77.10;;;;;;5096217;28;20361;-61
2022/03/11 02:35:18;;;;;;;;;;;6.70;76.80;;;;;;5077158;28;19961;-62
2022/03/11 02:37:43;;;;;;;;;;;6.80;76.80;;;;;;5094809;28;20403;-63
2022/03/11 02:40:09;;;;;;;;;;;6.80;77.00;;;;;;5095074;28;19908;-60
2022/03/11 02:42:35;;;;;;;;;;;6.60;77.10;;;;;;5094264;28;19962;-61
2022/03/11 02:45:04;;;;;;;;;;;6.70;77.30;;;;;;5077051;28;20282;-60
2022/03/11 02:47:30;;;;;;;;;;;6.70;77.10;;;;;;5094680;28;19991;-69
2022/03/11 02:49:55;;;;;;;;;;;6.90;76.80;;;;;;5094732;28;19970;-61
2022/03/11 02:52:21;;;;;;;;;;;6.90;76.90;;;;;;5094190;28;19958;-60
2022/03/11 02:54:48;;;;;;;;;;;6.90;76.70;;;;;;5094731;28;19920;-60
2022/03/11 02:57:13;;;;;;;;;;;6.90;77.00;;;;;;5094860;28;19908;-61
2022/03/11 02:59:39;;;;;;;;;;;6.90;76.90;;;;;;5094164;28;19909;-60
2022/03/11 03:02:04;;;;;;;;;;;6.80;77.00;;;;;;5094560;28;19915;-60
2022/03/11 03:04:30;;;;;;;;;;;6.70;77.30;;;;;;5076343;28;20470;-64
2022/03/11 03:06:56;;;;;;;;;;;6.50;78.30;;;;;;5096607;28;19912;-61
2022/03/11 03:09:21;;;;;;;;;;;6.70;77.90;;;;;;5096088;28;20266;-60
2022/03/11 03:11:47;;;;;;;;;;;6.60;77.90;;;;;;5095149;28;20337;-60
2022/03/11 03:14:12;;;;;;;;;;;6.70;77.70;;;;;;5094958;28;20012;-59
2022/03/11 03:16:38;;;;;;;;;;;6.70;77.70;;;;;;5094291;28;20334;-60
2022/03/11 03:19:04;;;;;;;;;;;6.50;78.30;;;;;;5094602;28;19909;-64
2022/03/11 03:21:29;;;;;;;;;;;6.30;79.10;;;;;;5076293;28;19931;-60
2022/03/11 03:23:55;;;;;;;;;;;6.30;79.10;;;;;;5094538;28;19959;-62
2022/03/11 03:26:20;;;;;;;;;;;6.20;79.50;;;;;;5075750;28;20404;-60
2022/03/11 03:28:46;;;;;;;;;;;6.20;79.70;;;;;;5076284;28;19958;-60
2022/03/11 03:31:11;;;;;;;;;;;6.30;79.60;;;;;;5095274;28;19936;-60
2022/03/11 03:33:37;;;;;;;;;;;6.30;79.10;;;;;;5076419;28;19912;-61
2022/03/11 03:36:02;;;;;;;;;;;6.20;79.20;;;;;;5094339;28;19955;-64
2022/03/11 03:38:28;;;;;;;;;;;6.20;79.30;;;;;;5093756;28;19915;-60
2022/03/11 03:40:53;;;;;;;;;;;6.20;79.60;;;;;;5076268;28;20401;-61
2022/03/11 03:43:19;;;;;;;;;;;6.30;79.10;;;;;;5094280;28;19954;-76
2022/03/11 03:45:45;;;;;;;;;;;6.40;78.80;;;;;;5094818;28;20429;-60
2022/03/11 03:48:10;;;;;;;;;;;6.20;78.80;;;;;;5094827;28;19908;-61
2022/03/11 03:50:36;;;;;;;;;;;6.30;78.60;;;;;;5094027;28;19912;-59
2022/03/11 03:53:01;;;;;;;;;;;6.30;78.60;;;;;;5093888;28;20382;-60
2022/03/11 03:55:27;;;;;;;;;;;6.40;78.20;;;;;;5093363;28;19916;-61
2022/03/11 03:57:53;;;;;;;;;;;6.40;78.10;;;;;;5094364;28;20417;-61
2022/03/11 04:00:18;;;;;;;;;;;6.30;77.80;;;;;;5075907;28;19985;-60
2022/03/11 04:02:47;;;;;;;;;;;6.30;78.00;;;;;;5093270;28;19992;-61
2022/03/11 04:05:13;;;;;;;;;;;6.00;78.90;;;;;;5095913;28;19908;-60
2022/03/11 04:07:42;;;;;;;;;;;6.10;78.40;;;;;;5091997;28;20003;-60
2022/03/11 04:10:08;;;;;;;;;;;6.20;78.20;;;;;;5093688;28;19908;-60
2022/03/11 04:12:34;;;;;;;;;;;6.20;77.80;;;;;;5093362;28;19916;-60
2022/03/11 04:14:59;;;;;;;;;;;6.20;77.70;;;;;;5093752;28;19912;-63
2022/03/11 04:17:25;;;;;;;;;;;6.10;77.60;;;;;;5093207;28;20265;-61
2022/03/11 04:19:50;;;;;;;;;;;6.30;77.30;;;;;;5093997;28;19908;-61
2022/03/11 04:22:16;;;;;;;;;;;6.20;77.20;;;;;;5093442;28;19955;-62
2022/03/11 04:24:41;;;;;;;;;;;6.00;77.40;;;;;;5074581;28;19928;-61
2022/03/11 04:27:07;;;;;;;;;;;6.10;77.60;;;;;;5093820;28;19909;-62
2022/03/11 04:29:34;;;;;;;;;;;6.10;77.30;;;;;;5092837;28;19908;-60
2022/03/11 04:31:59;;;;;;;;;;;5.80;77.80;;;;;;5075981;28;19908;-63
2022/03/11 04:34:25;;;;;;;;;;;5.90;77.60;;;;;;5093379;28;19912;-62
2022/03/11 04:36:51;;;;;;;;;;;5.90;77.80;;;;;;5094125;28;19912;-62
2022/03/11 04:39:17;;;;;;;;;;;6.00;77.60;;;;;;5075655;28;19958;-65
2022/03/11 04:41:44;;;;;;;;;;;5.90;77.40;;;;;;5074957;28;20556;-65
2022/03/11 04:44:09;;;;;;;;;;;5.70;78.00;;;;;;5074832;28;20007;-69
2022/03/11 04:46:35;;;;;;;;;;;5.70;78.30;;;;;;5074796;28;19991;-61
2022/03/11 04:49:00;;;;;;;;;;;5.80;78.00;;;;;;5079037;28;20010;-61
2022/03/11 04:51:26;;;;;;;;;;;5.70;78.10;;;;;;5096724;28;19916;-63
2022/03/11 04:53:53;;;;;;;;;;;5.60;78.20;;;;;;5078687;28;20274;-64
2022/03/11 04:56:19;;;;;;;;;;;5.50;78.80;;;;;;5079109;28;19994;-61
2022/03/11 04:58:44;;;;;;;;;;;5.50;78.70;;;;;;5078414;28;19923;-61
2022/03/11 05:01:10;;;;;;;;;;;5.50;77.80;;;;;;5079072;28;19912;-61
2022/03/11 05:03:35;;;;;;;;;;;5.50;78.30;;;;;;5097083;28;19940;-60
2022/03/11 05:06:01;;;;;;;;;;;5.50;77.50;;;;;;5097324;28;19908;-62
2022/03/11 05:08:26;;;;;;;;;;;5.70;77.20;;;;;;5078327;28;19912;-60
2022/03/11 05:10:52;;;;;;;;;;;5.60;76.80;;;;;;5096975;28;19912;-63
2022/03/11 05:13:18;;;;;;;;;;;5.40;77.40;;;;;;5096717;28;19988;-62
2022/03/11 05:15:44;;;;;;;;;;;5.40;77.20;;;;;;5096569;28;20384;-60
2022/03/11 05:18:11;;;;;;;;;;;5.40;77.10;;;;;;5062217;28;20006;-62
2022/03/11 05:20:36;;;;;;;;;;;5.40;77.00;;;;;;5079708;28;19958;-66
2022/03/11 05:23:02;;;;;;;;;;;5.40;77.50;;;;;;5079001;28;19908;-61
2022/03/11 05:25:28;;;;;;;;;;;5.40;77.00;;;;;;5085024;28;19980;-63
2022/03/11 05:27:53;;;;;;;;;;;5.50;76.70;;;;;;5058863;28;19916;-62
2022/03/11 05:30:19;;;;;;;;;;;5.40;76.30;;;;;;5058675;28;19954;-60
2022/03/11 05:32:49;;;;;;;;;;;5.30;76.60;;;;;;5057938;28;20270;-62
2022/03/11 05:35:15;;;;;;;;;;;5.40;76.80;;;;;;5058506;28;19913;-60
2022/03/11 05:37:41;;;;;;;;;;;5.30;77.00;;;;;;5076114;28;19970;-62
2022/03/11 05:40:07;;;;;;;;;;;5.30;76.70;;;;;;5058421;28;19969;-60
2022/03/11 05:42:33;;;;;;;;;;;5.10;77.00;;;;;;5076088;28;19909;-61
2022/03/11 05:44:58;;;;;;;;;;;5.10;77.10;;;;;;5068653;28;19913;-66
2022/03/11 05:47:24;;;;;;;;;;;5.10;76.60;;;;;;5073908;28;19909;-62
2022/03/11 05:49:49;;;;;;;;;;;4.90;76.80;;;;;;5075267;28;19913;-65
2022/03/11 05:52:15;;;;;;;;;;;4.90;76.80;;;;;;5065762;28;19974;-63
2022/03/11 05:54:40;;;;;;;;;;;5.00;75.50;;;;;;5037101;28;19917;-64
2022/03/11 05:57:06;;;;;;;;;;;5.00;76.20;;;;;;5043140;28;19943;-61
2022/03/11 05:59:32;;;;;;;;;;;4.90;76.00;;;;;;5067694;28;19931;-62
2022/03/11 06:01:58;;;;;;;;;;;4.80;75.90;;;;;;5075669;28;19908;-62
2022/03/11 06:04:24;;;;;;;;;;;4.90;76.00;;;;;;5071951;28;19935;-62
2022/03/11 06:06:49;;;;;;;;;;;4.90;75.10;;;;;;5061244;28;20003;-61
2022/03/11 06:09:15;;;;;;;;;;;5.10;74.70;;;;;;5062254;28;19909;-62
2022/03/11 06:11:40;;;;;;;;;;;5.20;74.50;;;;;;5056128;28;20358;-60
2022/03/11 06:14:06;;;;;;;;;;;5.30;74.00;;;;;;5069717;28;20011;-60
2022/03/11 06:16:33;;;;;;;;;;;5.30;73.40;;;;;;5057152;28;19913;-66
2022/03/11 06:18:58;;;;;;;;;;;5.80;94.80;;;;;;5075509;28;19908;-64
2022/03/11 06:21:24;;;;;;;;;;;5.70;77.30;;;;;;5057928;28;19969;-67
2022/03/11 06:23:49;;;;;;;;;;;5.80;75.70;;;;;;5074676;28;20417;-65
2022/03/11 06:26:15;;;;;;;;;;;5.60;75.70;;;;;;5071256;28;19974;-62
2022/03/11 06:28:40;;;;;;;;;;;5.40;75.80;;;;;;5075371;28;19908;-63
2022/03/11 06:31:11;;;;;;;;;;;5.50;75.20;;;;;;5059390;28;19923;-61
2022/03/11 06:33:37;;;;;;;;;;;5.50;75.00;;;;;;5073896;28;19917;-63
2022/03/11 06:36:03;;;;;;;;;;;5.50;74.20;;;;;;5068313;28;19912;-61
2022/03/11 06:38:28;;;;;;;;;;;5.40;74.30;;;;;;5055781;28;19909;-63
2022/03/11 06:40:55;;;;;;;;;;;5.30;74.50;;;;;;5054892;28;19909;-63
2022/03/11 06:43:21;;;;;;;;;;;5.20;75.00;;;;;;5054442;28;19931;-66
2022/03/11 06:45:47;;;;;;;;;;;5.00;75.50;;;;;;5068598;28;20342;-62
2022/03/11 06:48:12;;;;;;;;;;;5.00;75.70;;;;;;5074154;28;19919;-61
2022/03/11 06:50:38;;;;;;;;;;;5.00;75.40;;;;;;5065308;28;20354;-65
2022/03/11 06:53:03;;;;;;;;;;;4.90;75.40;;;;;;5056815;28;20011;-70
2022/03/11 06:55:29;;;;;;;;;;;5.20;75.10;;;;;;5071582;28;19920;-62
2022/03/11 06:57:55;;;;;;;;;;;5.40;74.60;;;;;;5074523;28;20338;-62
2022/03/11 07:00:20;;;;;;;;;;;5.50;73.70;;;;;;5074794;28;19909;-63
2022/03/11 07:02:45;;;;;;;;;;;6.10;72.30;;;;;;5072827;28;19916;-64
2022/03/11 07:05:11;;;;;;;;;;;6.50;72.10;;;;;;5071358;28;20298;-65
2022/03/11 07:07:37;;;;;;;;;;;6.80;70.90;;;;;;5069421;28;20269;-63
2022/03/11 07:10:04;;;;;;;;;;;7.10;69.30;;;;;;5073472;28;19983;-63
2022/03/11 07:12:31;;;;;;;;;;;6.60;68.90;;;;;;5074141;28;19908;-62
2022/03/11 07:14:58;;;;;;;;;;;6.80;69.30;;;;;;5071976;28;20361;-64
2022/03/11 07:17:24;;;;;;;;;;;6.70;68.80;;;;;;5055306;28;19920;-62
2022/03/11 07:19:49;;;;;;;;;;;6.50;68.70;;;;;;5062658;28;20285;-62
2022/03/11 07:22:14;;;;;;;;;;;6.80;68.20;;;;;;5054524;28;19913;-62
2022/03/11 07:24:41;;;;;;;;;;;7.40;68.70;;;;;;5063702;28;19981;-64
2022/03/11 07:27:06;;;;;;;;;;;7.20;66.60;;;;;;5056784;28;19920;-62
2022/03/11 07:29:32;;;;;;;;;;;7.10;67.00;;;;;;5075994;28;20257;-63
2022/03/11 07:31:57;;;;;;;;;;;6.90;66.10;;;;;;5075203;28;19908;-63
2022/03/11 07:34:23;;;;;;;;;;;7.20;66.80;;;;;;5074176;28;20118;-64
2022/03/11 07:36:49;;;;;;;;;;;7.20;66.40;;;;;;5089608;28;20334;-64
2022/03/11 07:39:15;;;;;;;;;;;7.20;66.30;;;;;;5064612;28;19916;-64
2022/03/11 07:41:41;;;;;;;;;;;7.80;65.70;;;;;;5078567;28;19919;-62
2022/03/11 07:44:06;;;;;;;;;;;8.00;64.40;;;;;;5074066;28;19919;-63
2022/03/11 07:46:32;;;;;;;;;;;8.30;63.50;;;;;;5078826;28;20365;-62
2022/03/11 07:48:58;;;;;;;;;;;8.80;62.10;;;;;;5076049;28;19956;-64
2022/03/11 07:51:25;;;;;;;;;;;7.50;62.00;;;;;;5089693;28;19912;-64
2022/03/11 07:53:50;;;;;;;;;;;7.40;63.10;;;;;;5070813;28;20419;-64
2022/03/11 07:56:16;;;;;;;;;;;7.60;63.70;;;;;;5071709;28;19964;-63
2022/03/11 07:58:42;;;;;;;;;;;7.90;62.20;;;;;;5088158;28;19947;-63
2022/03/11 08:01:08;;;;;;;;;;;7.50;62.60;;;;;;5094781;28;19930;-63
2022/03/11 08:03:37;;;;;;;;;;;8.40;61.90;;;;;;5085105;28;20277;-71
2022/03/11 08:06:04;;;;;;;;;;;7.30;62.90;;;;;;5090083;28;20258;-63
2022/03/11 08:08:29;;;;;;;;;;;7.30;62.00;;;;;;5086978;28;19991;-63
2022/03/11 08:10:55;;;;;;;;;;;6.70;62.90;;;;;;5083185;28;19959;-64
2022/03/11 08:13:21;;;;;;;;;;;6.60;63.80;;;;;;5080879;28;19916;-62
2022/03/11 08:15:47;;;;;;;;;;;7.10;63.00;;;;;;5062735;28;19961;-63
2022/03/11 08:18:12;;;;;;;;;;;7.10;62.70;;;;;;5073373;28;19916;-63
2022/03/11 08:20:38;;;;;;;;;;;7.20;62.50;;;;;;5076202;28;19914;-64
2022/03/11 08:23:03;;;;;;;;;;;7.20;62.30;;;;;;5075576;28;19912;-70
2022/03/11 08:25:29;;;;;;;;;;;7.20;62.10;;;;;;5081387;28;20070;-62
2022/03/11 08:27:57;;;;;;;;;;;7.10;62.40;;;;;;5081278;28;20325;-64
2022/03/11 08:30:23;;;;;;;;;;;7.40;62.70;;;;;;5058382;28;20383;-64
2022/03/11 08:32:49;;;;;;;;;;;7.40;61.80;;;;;;5071327;28;19908;-63
2022/03/11 08:35:14;;;;;;;;;;;7.00;62.30;;;;;;5071972;28;20409;-62
2022/03/11 08:37:42;;;;;;;;;;;7.30;61.60;;;;;;5077008;28;19912;-63
2022/03/11 08:40:08;;;;;;;;;;;7.90;61.30;;;;;;5083569;28;19946;-60
2022/03/11 08:42:35;;;;;;;;;;;7.80;61.20;;;;;;5082964;28;20032;-61
2022/03/11 08:45:01;;;;;;;;;;;7.90;60.80;;;;;;5059758;28;19948;-62
2022/03/11 08:47:27;;;;;;;;;;;8.20;60.30;;;;;;5079102;28;19959;-63
2022/03/11 08:49:53;;;;;;;;;;;8.50;60.00;;;;;;5083708;28;19920;-63
2022/03/11 08:52:21;;;;;;;;;;;8.50;59.80;;;;;;5080042;28;19912;-62
2022/03/11 08:54:46;;;;;;;;;;;9.10;59.40;;;;;;5092420;28;19966;-60
2022/03/11 08:57:12;;;;;;;;;;;9.20;59.20;;;;;;5091952;28;19935;-61
2022/03/11 08:59:37;;;;;;;;;;;9.80;58.60;;;;;;5088900;28;19914;-80
2022/03/11 09:02:06;;;;;;;;;;;10.00;57.20;;;;;;5086433;28;19909;-62
2022/03/11 09:04:32;;;;;;;;;;;9.20;58.60;;;;;;5090485;28;20010;-60
2022/03/11 09:06:58;;;;;;;;;;;9.20;58.40;;;;;;5091250;28;20188;-63
2022/03/11 09:09:23;;;;;;;;;;;8.70;59.40;;;;;;5085773;28;20062;-63
2022/03/11 09:11:49;;;;;;;;;;;9.50;59.00;;;;;;5085041;28;19913;-62
2022/03/11 09:14:14;;;;;;;;;;;10.20;57.50;;;;;;5091815;28;20007;-71
2022/03/11 09:16:40;;;;;;;;;;;9.40;57.70;;;;;;5067282;28;19916;-64
2022/03/11 09:19:05;;;;;;;;;;;9.70;58.10;;;;;;5069139;28;19909;-65
2022/03/11 09:21:31;;;;;;;;;;;9.60;57.90;;;;;;5066803;28;20002;-61
2022/03/11 09:23:56;;;;;;;;;;;9.90;58.20;;;;;;5088048;28;19946;-60
2022/03/11 09:26:22;;;;;;;;;;;10.40;57.30;;;;;;5093190;28;19928;-64
2022/03/11 09:28:47;;;;;;;;;;;10.30;56.70;;;;;;5092739;28;19908;-63
2022/03/11 09:31:13;;;;;;;;;;;9.80;57.60;;;;;;5092609;28;20331;-65
2022/03/11 09:33:39;;;;;;;;;;;9.90;57.30;;;;;;5090101;28;19920;-60
2022/03/11 09:36:05;;;;;;;;;;;9.40;58.10;;;;;;5070197;28;20276;-66
2022/03/11 09:38:31;;;;;;;;;;;9.30;58.60;;;;;;5070211;28;20392;-64
2022/03/11 09:40:57;;;;;;;;;;;9.30;58.30;;;;;;5069690;28;19955;-65
2022/03/11 09:43:22;;;;;;;;;;;9.30;58.60;;;;;;5088374;28;19974;-65
2022/03/11 09:45:48;;;;;;;;;;;10.00;58.20;;;;;;5067141;28;20312;-62
2022/03/11 09:48:15;;;;;;;;;;;10.00;57.60;;;;;;5095357;28;19931;-63
2022/03/11 09:50:41;;;;;;;;;;;10.10;57.90;;;;;;5074855;28;20025;-80
2022/03/11 09:53:06;;;;;;;;;;;10.10;57.30;;;;;;5094567;28;20046;-61
2022/03/11 09:55:32;;;;;;;;;;;10.30;57.10;;;;;;5091753;28;19931;-62
2022/03/11 09:57:57;;;;;;;;;;;10.10;57.50;;;;;;5086319;28;19913;-62
2022/03/11 10:00:23;;;;;;;;;;;10.50;57.60;;;;;;5086967;28;19918;-64
2022/03/11 10:02:48;;;;;;;;;;;10.80;57.10;;;;;;5094929;28;19934;-63
2022/03/11 10:05:14;;;;;;;;;;;10.40;56.80;;;;;;5074062;28;20250;-62
2022/03/11 10:07:40;;;;;;;;;;;10.30;57.30;;;;;;5077480;28;19912;-63
2022/03/11 10:10:13;;;;;;;;;;;10.60;56.70;;;;;;5095590;28;20293;-68
2022/03/11 10:12:43;;;;;;;;;;;10.50;57.30;;;;;;5096362;28;20403;-65
2022/03/11 10:15:09;;;;;;;;;;;10.80;56.30;;;;;;5095872;28;20022;-67
2022/03/11 10:17:39;;;;;;;;;;;10.90;57.10;;;;;;5093986;28;20332;-63
2022/03/11 10:20:09;;;;;;;;;;;10.70;56.70;;;;;;5088269;28;19947;-64
2022/03/11 10:22:35;;;;;;;;;;;10.80;56.20;;;;;;5094336;28;19962;-61
2022/03/11 10:25:16;;;;;;;;;;;10.90;56.70;;;;;;5086143;28;19962;-61
2022/03/11 10:28:02;;;;;;;;;;;11.00;56.70;;;;;;5067911;28;20369;-70
2022/03/11 10:30:28;;;;;;;;;;;11.00;56.30;;;;;;5091548;28;19908;-68
2022/03/11 10:32:55;;;;;;;;;;;11.30;55.90;;;;;;5088743;28;19954;-63
2022/03/11 10:35:28;;;;;;;;;;;11.80;55.10;;;;;;5086453;28;19923;-63
2022/03/11 10:37:59;;;;;;;;;;;11.80;55.60;;;;;;5095606;28;19961;-62
2022/03/11 10:40:25;;;;;;;;;;;12.90;53.90;;;;;;5077559;28;19999;-63
2022/03/11 10:43:07;;;;;;;;;;;12.30;54.70;;;;;;5091888;28;19962;-61
2022/03/11 10:45:42;;;;;;;;;;;11.40;55.30;;;;;;5076695;28;20262;-64
2022/03/11 10:48:07;;;;;;;;;;;12.50;54.30;;;;;;5091709;28;19908;-65
2022/03/11 10:50:35;;;;;;;;;;;12.70;54.00;;;;;;5092411;28;20308;-63
2022/03/11 10:53:05;;;;;;;;;;;12.70;53.90;;;;;;5092656;28;19912;-63
2022/03/11 10:55:30;;;;;;;;;;;12.20;54.60;;;;;;5094225;28;19916;-63
2022/03/11 10:57:57;;;;;;;;;;;12.60;54.10;;;;;;5074897;28;19918;-66
2022/03/11 11:00:23;;;;;;;;;;;13.00;53.50;;;;;;5057659;28;19908;-61
2022/03/11 11:02:51;;;;;;;;;;;13.50;52.70;;;;;;5091612;28;19908;-62
2022/03/11 11:05:17;;;;;;;;;;;13.20;53.30;;;;;;5092890;28;19912;-65
2022/03/11 11:07:43;;;;;;;;;;;14.10;52.30;;;;;;5074643;28;19915;-66
2022/03/11 11:10:09;;;;;;;;;;;13.50;52.50;;;;;;5073907;28;19908;-64
2022/03/11 11:12:35;;;;;;;;;;;13.10;52.90;;;;;;5075206;28;19908;-64
2022/03/11 11:15:01;;;;;;;;;;;13.10;53.20;;;;;;5074468;28;19919;-63
2022/03/11 11:17:27;;;;;;;;;;;14.30;52.30;;;;;;5092834;28;20435;-65
2022/03/11 11:19:56;;;;;;;;;;;15.00;52.00;;;;;;5086044;28;19912;-62
2022/03/11 11:22:22;;;;;;;;;;;13.40;52.10;;;;;;5074852;28;19918;-62
2022/03/11 11:24:49;;;;;;;;;;;13.70;53.00;;;;;;5090526;28;20346;-67
2022/03/11 11:27:15;;;;;;;;;;;12.90;52.60;;;;;;5085894;28;19959;-63
2022/03/11 11:29:42;;;;;;;;;;;12.70;53.30;;;;;;5065899;28;19908;-63
2022/03/11 11:32:08;;;;;;;;;;;13.00;52.70;;;;;;5092234;28;19912;-64
2022/03/11 11:34:35;;;;;;;;;;;13.90;53.10;;;;;;5065961;28;19912;-61
2022/03/11 11:37:02;;;;;;;;;;;13.20;52.30;;;;;;5086543;28;19912;-63
2022/03/11 11:39:35;;;;;;;;;;;13.10;52.80;;;;;;5088596;28;19912;-66
2022/03/11 11:42:05;;;;;;;;;;;13.50;53.40;;;;;;5075016;28;19908;-73
2022/03/11 11:44:35;;;;;;;;;;;13.70;51.80;;;;;;5075472;28;19947;-62
2022/03/11 11:47:20;;;;;;;;;;;13.20;53.20;;;;;;5076376;28;20319;-62
2022/03/11 11:49:47;;;;;;;;;;;13.60;52.40;;;;;;5094169;28;20006;-67
2022/03/11 11:52:25;;;;;;;;;;;13.90;52.40;;;;;;5076552;28;19912;-66
2022/03/11 11:54:50;;;;;;;;;;;13.50;52.40;;;;;;5094439;28;19916;-62
2022/03/11 11:57:17;;;;;;;;;;;13.70;51.70;;;;;;5093537;28;19916;-69
2022/03/11 11:59:42;;;;;;;;;;;14.30;51.70;;;;;;5075816;28;19916;-61
2022/03/11 12:02:29;;;;;;;;;;;14.40;51.80;;;;;;5093981;28;20255;-62
2022/03/11 12:04:55;;;;;;;;;;;13.70;52.80;;;;;;5055627;28;20102;-74
2022/03/11 12:07:22;;;;;;;;;;;13.60;52.80;;;;;;5089254;28;19951;-62
2022/03/11 12:09:53;;;;;;;;;;;14.10;52.10;;;;;;5073970;28;19915;-61
2022/03/11 12:12:22;;;;;;;;;;;15.20;51.30;;;;;;5080171;28;19916;-66
2022/03/11 12:14:54;;;;;;;;;;;14.70;51.00;;;;;;5058864;28;19912;-67
2022/03/11 12:17:51;;;;;;;;;;;14.60;51.50;;;;;;5079155;28;19920;-69
2022/03/11 12:20:29;;;;;;;;;;;14.00;51.70;;;;;;5069675;28;19916;-63
2022/03/11 12:22:55;;;;;;;;;;;13.70;52.30;;;;;;5092495;28;20390;-64
2022/03/11 12:25:22;;;;;;;;;;;14.40;51.40;;;;;;5068839;28;20033;-66
2022/03/11 12:28:06;;;;;;;;;;;14.80;51.80;;;;;;5089970;28;20066;-62
2022/03/11 12:30:34;;;;;;;;;;;16.80;50.60;;;;;;5056644;28;19915;-63
2022/03/11 12:33:07;;;;;;;;;;;14.90;50.20;;;;;;5089532;28;20057;-66
2022/03/11 12:35:33;;;;;;;;;;;14.90;51.70;;;;;;5066442;28;19988;-65
2022/03/11 12:37:59;;;;;;;;;;;14.50;51.20;;;;;;5064622;28;20006;-64
2022/03/11 12:40:25;;;;;;;;;;;15.50;50.60;;;;;;5061935;28;20414;-63
2022/03/11 12:42:56;;;;;;;;;;;14.90;50.80;;;;;;5085498;28;19912;-72
2022/03/11 12:45:32;;;;;;;;;;;14.20;51.50;;;;;;5082382;28;19912;-65
2022/03/11 12:47:58;;;;;;;;;;;14.40;52.40;;;;;;5060280;28;20005;-64
2022/03/11 12:50:24;;;;;;;;;;;15.20;51.00;;;;;;5061878;28;19908;-65
2022/03/11 12:52:50;;;;;;;;;;;16.00;49.90;;;;;;5083962;28;19959;-65
2022/03/11 12:55:20;;;;;;;;;;;16.10;50.60;;;;;;5080900;28;19927;-65
2022/03/11 12:57:48;;;;;;;;;;;15.80;49.50;;;;;;5066043;28;20312;-68
2022/03/11 13:00:18;;;;;;;;;;;15.40;50.20;;;;;;5081131;28;20362;-66
2022/03/11 13:02:43;;;;;;;;;;;15.10;50.60;;;;;;5047904;28;19989;-71
2022/03/11 13:05:25;;;;;;;;;;;15.90;50.90;;;;;;5052690;28;20047;-66
2022/03/11 13:07:52;;;;;;;;;;;16.00;49.80;;;;;;5046182;28;19924;-79
2022/03/11 13:10:21;;;;;;;;;;;17.10;49.40;;;;;;5067632;28;20358;-64
2022/03/11 13:12:47;;;;;;;;;;;17.50;48.50;;;;;;5087061;28;19922;-64
2022/03/11 13:15:16;;;;;;;;;;;16.80;48.50;;;;;;5064487;28;20270;-65
2022/03/11 13:17:41;;;;;;;;;;;16.30;49.80;;;;;;5085792;28;19912;-65
2022/03/11 13:20:07;;;;;;;;;;;17.60;49.70;;;;;;5086290;28;19999;-63
2022/03/11 13:22:33;;;;;;;;;;;16.20;49.10;;;;;;5063583;28;20238;-64
2022/03/11 13:25:03;;;;;;;;;;;16.10;49.20;;;;;;5059156;28;19924;-54
2022/03/11 13:27:35;;;;;;;;;;;17.00;64.70;;;;;;5084256;28;19913;-55
2022/03/11 13:30:05;;;;;;;;;;;17.50;60.90;;;;;;5073021;28;19916;-53
2022/03/11 13:32:31;;;;;;;;;;;18.30;59.70;;;;;;5075649;28;19908;-55
2022/03/11 13:34:56;;;;;;;;;;;17.70;54.10;;;;;;5074576;28;19916;-55
2022/03/11 13:37:22;;;;;;;;;;;17.40;59.80;;;;;;5071439;28;19940;-54
2022/03/11 13:40:05;;;;;;;;;;;16.90;56.80;;;;;;5054435;28;19908;-55
2022/03/11 13:42:31;;;;;;;;;;;16.60;53.90;;;;;;5072602;28;19947;-56
2022/03/11 13:45:06;;;;;;;;;;;17.50;59.20;;;;;;5078230;28;20342;-56
2022/03/11 13:47:32;;;;;;;;;;;18.30;54.30;;;;;;5064834;28;19912;-56
2022/03/11 13:50:06;;;;;;;;;;;18.20;57.80;;;;;;5081579;28;19999;-58
2022/03/11 13:52:39;;;;;;;;;;;18.60;51.50;;;;;;5065956;28;20258;-56
2022/03/11 13:55:06;;;;;;;;;;;19.00;53.70;;;;;;5063318;28;19921;-58
2022/03/11 13:57:35;;;;;;;;;;;18.50;54.60;;;;;;5091309;28;20292;-56
2022/03/11 14:00:17;;;;;;;;;;;18.10;50.60;;;;;;5080860;28;19908;-58
2022/03/11 14:02:43;;;;;;;;;;;18.20;52.30;;;;;;5076461;28;19916;-56
2022/03/11 14:05:21;;;;;;;;;;;18.20;53.50;;;;;;5090954;28;19908;-56
2022/03/11 14:07:47;;;;;;;;;;;17.50;53.20;;;;;;5089007;28;19927;-56
2022/03/11 14:10:14;;;;;;;;;;;18.40;56.50;;;;;;5086798;28;19932;-57
2022/03/11 14:12:40;;;;;;;;;;;18.20;54.30;;;;;;5068732;28;19920;-56
2022/03/11 14:15:06;;;;;;;;;;;18.30;53.80;;;;;;5091761;28;19916;-57
2022/03/11 14:17:32;;;;;;;;;;;17.70;52.00;;;;;;5091458;28;19950;-56
2022/03/11 14:19:58;;;;;;;;;;;17.70;52.20;;;;;;5084951;28;20007;-57
2022/03/11 14:22:24;;;;;;;;;;;18.10;53.40;;;;;;5086516;28;19928;-56
2022/03/11 14:24:49;;;;;;;;;;;18.60;55.60;;;;;;5070710;28;20036;-56